createdAt,value
2022-11-08T00:02:21.622Z,1.20
2022-11-08T00:04:48.557Z,1.52
2022-11-08T00:07:34.264Z,1.20
2022-11-08T00:10:19.493Z,1.38
2022-11-08T00:13:04.946Z,1.15
2022-11-08T00:15:38.341Z,1.20
2022-11-08T00:18:07.021Z,1.42
2022-11-08T00:20:34.255Z,1.23
2022-11-08T00:23:01.410Z,1.27
2022-11-08T00:25:28.288Z,1.65
2022-11-08T00:27:55.081Z,1.40
2022-11-08T00:30:22.015Z,1.25
2022-11-08T00:32:48.849Z,1.40
2022-11-08T00:35:15.922Z,1.65
2022-11-08T00:37:42.778Z,1.45
2022-11-08T00:40:10.472Z,1.23
2022-11-08T00:42:37.335Z,1.40
2022-11-08T00:45:04.654Z,1.55
2022-11-08T00:47:31.477Z,1.27
2022-11-08T00:49:58.252Z,1.63
2022-11-08T00:52:25.105Z,1.02
2022-11-08T00:55:00.011Z,1.80
2022-11-08T00:57:46.870Z,1.10
2022-11-08T01:00:14.941Z,1.33
2022-11-08T01:02:41.756Z,1.50
2022-11-08T01:05:09.180Z,1.42
2022-11-08T01:07:36.004Z,1.13
2022-11-08T01:10:02.871Z,1.42
2022-11-08T01:12:29.706Z,1.40
2022-11-08T01:14:56.956Z,1.38
2022-11-08T01:17:23.849Z,1.20
2022-11-08T01:19:51.054Z,1.20
2022-11-08T01:22:17.828Z,1.17
2022-11-08T01:24:44.593Z,1.33
2022-11-08T01:27:11.811Z,1.27
2022-11-08T01:29:39.011Z,1.25
2022-11-08T01:32:06.389Z,1.13
2022-11-08T01:34:33.297Z,1.30
2022-11-08T01:37:00.504Z,1.10
2022-11-08T01:39:27.633Z,1.55
2022-11-08T01:41:54.437Z,1.05
2022-11-08T01:44:22.239Z,1.08
2022-11-08T01:46:49.654Z,1.23
2022-11-08T01:49:30.990Z,1.05
2022-11-08T01:52:02.677Z,0.90
2022-11-08T01:54:52.716Z,1.25
2022-11-08T01:57:35.516Z,1.00
2022-11-08T02:00:06.835Z,1.08
2022-11-08T02:02:36.852Z,1.33
2022-11-08T02:05:06.571Z,1.33
2022-11-08T02:07:34.444Z,1.50
2022-11-08T02:10:02.543Z,0.95
2022-11-08T02:12:30.051Z,1.23
2022-11-08T02:14:57.279Z,1.10
2022-11-08T02:17:24.518Z,1.10
2022-11-08T02:19:52.055Z,1.08
2022-11-08T02:22:27.946Z,1.63
2022-11-08T02:24:55.868Z,1.27
2022-11-08T02:27:23.387Z,1.65
2022-11-08T02:29:56.290Z,1.20
2022-11-08T02:32:24.715Z,1.20
2022-11-08T02:34:59.243Z,1.80
2022-11-08T02:37:27.676Z,1.05
2022-11-08T02:39:54.587Z,1.10
2022-11-08T02:42:21.672Z,1.35
2022-11-08T02:44:48.985Z,1.08
2022-11-08T02:47:16.454Z,1.02
2022-11-08T02:49:43.802Z,1.23
2022-11-08T02:52:11.054Z,1.70
2022-11-08T02:54:38.271Z,1.27
2022-11-08T02:57:05.500Z,1.30
2022-11-08T02:59:32.584Z,1.30
2022-11-08T03:01:59.713Z,1.17
2022-11-08T03:04:27.041Z,1.33
2022-11-08T03:06:53.865Z,1.35
2022-11-08T03:09:20.690Z,1.20
2022-11-08T03:11:47.876Z,1.45
2022-11-08T03:14:15.136Z,1.48
2022-11-08T03:16:41.894Z,1.17
2022-11-08T03:19:09.127Z,1.13
2022-11-08T03:21:36.726Z,1.52
2022-11-08T03:24:04.716Z,1.50
2022-11-08T03:26:32.534Z,1.20
2022-11-08T03:28:59.397Z,1.00
2022-11-08T03:31:26.225Z,1.40
2022-11-08T03:33:53.425Z,1.52
2022-11-08T03:36:20.679Z,1.17
2022-11-08T03:38:47.931Z,1.20
2022-11-08T03:41:15.194Z,1.08
2022-11-08T03:43:42.436Z,1.40
2022-11-08T03:46:09.226Z,1.40
2022-11-08T03:48:36.456Z,1.40
2022-11-08T03:51:03.319Z,1.10
2022-11-08T03:53:30.122Z,0.95
2022-11-08T03:55:59.913Z,1.05
2022-11-08T03:58:27.183Z,1.10
2022-11-08T04:00:54.641Z,1.40
2022-11-08T04:03:22.090Z,1.30
2022-11-08T04:05:48.880Z,1.42
2022-11-08T04:08:16.348Z,1.20
2022-11-08T04:10:43.752Z,1.20
2022-11-08T04:13:30.167Z,1.20
2022-11-08T04:15:58.082Z,0.85
2022-11-08T04:18:43.930Z,0.98
2022-11-08T04:21:19.733Z,1.23
2022-11-08T04:23:47.783Z,1.10
2022-11-08T04:26:14.665Z,1.27
2022-11-08T04:28:43.662Z,0.93
2022-11-08T04:31:16.484Z,1.30
2022-11-08T04:33:44.091Z,1.20
2022-11-08T04:36:16.102Z,1.25
2022-11-08T04:38:43.430Z,1.30
2022-11-08T04:41:15.018Z,0.93
2022-11-08T04:43:42.277Z,1.00
2022-11-08T04:46:11.639Z,1.27
2022-11-08T04:48:41.179Z,0.98
2022-11-08T04:51:18.256Z,1.08
2022-11-08T04:53:45.787Z,1.10
2022-11-08T04:56:15.527Z,1.30
2022-11-08T04:58:44.608Z,1.10
2022-11-08T05:01:19.432Z,1.20
2022-11-08T05:03:48.040Z,1.45
2022-11-08T05:06:17.920Z,1.00
2022-11-08T05:08:45.234Z,1.40
2022-11-08T05:11:14.777Z,1.15
2022-11-08T05:13:42.343Z,1.45
2022-11-08T05:16:13.356Z,1.27
2022-11-08T05:18:42.043Z,1.20
2022-11-08T05:21:30.475Z,1.00
2022-11-08T05:23:58.702Z,1.52
2022-11-08T05:26:26.536Z,1.10
2022-11-08T05:28:53.685Z,1.55
2022-11-08T05:31:21.008Z,1.23
2022-11-08T05:33:48.228Z,1.83
2022-11-08T05:36:16.499Z,1.23
2022-11-08T05:38:43.961Z,1.02
2022-11-08T05:41:13.713Z,1.33
2022-11-08T05:43:41.048Z,1.30
2022-11-08T05:46:09.009Z,1.35
2022-11-08T05:48:36.146Z,1.30
2022-11-08T05:51:03.406Z,1.02
2022-11-08T05:53:31.007Z,1.60
2022-11-08T05:56:02.523Z,1.50
2022-11-08T05:58:31.053Z,1.08
2022-11-08T06:01:11.984Z,1.00
2022-11-08T06:03:39.578Z,1.70
2022-11-08T06:06:13.156Z,1.50
2022-11-08T06:08:40.541Z,1.45
2022-11-08T06:11:09.877Z,1.20
2022-11-08T06:13:37.489Z,1.48
2022-11-08T06:16:07.365Z,1.40
2022-11-08T06:18:35.771Z,1.48
2022-11-08T06:21:04.638Z,1.70
2022-11-08T06:23:31.925Z,1.90
2022-11-08T06:25:59.106Z,2.13
2022-11-08T06:28:26.407Z,1.58
2022-11-08T06:30:53.677Z,1.33
2022-11-08T06:33:21.602Z,1.98
2022-11-08T06:35:48.900Z,1.95
2022-11-08T06:38:15.717Z,2.13
2022-11-08T06:40:42.956Z,1.75
2022-11-08T06:43:16.384Z,1.63
2022-11-08T06:45:46.019Z,1.50
2022-11-08T06:48:13.283Z,1.88
2022-11-08T06:50:40.534Z,3.10
2022-11-08T06:53:10.565Z,4.20
2022-11-08T06:55:37.769Z,3.90
2022-11-08T06:58:05.489Z,3.47
2022-11-08T07:00:32.590Z,3.13
2022-11-08T07:03:01.322Z,2.67
2022-11-08T07:05:31.563Z,2.30
2022-11-08T07:07:58.858Z,2.67
2022-11-08T07:10:28.275Z,2.60
2022-11-08T07:13:00.314Z,1.90
2022-11-08T07:15:27.386Z,2.30
2022-11-08T07:17:54.344Z,2.28
2022-11-08T07:20:22.354Z,2.13
2022-11-08T07:22:49.561Z,1.83
2022-11-08T07:25:16.945Z,2.53
2022-11-08T07:27:43.715Z,2.28
2022-11-08T07:30:11.177Z,2.38
2022-11-08T07:32:38.441Z,2.28
2022-11-08T07:35:06.043Z,2.00
2022-11-08T07:37:33.546Z,1.80
2022-11-08T07:40:00.856Z,2.03
2022-11-08T07:42:38.372Z,1.80
2022-11-08T07:45:14.947Z,2.15
2022-11-08T07:47:42.255Z,1.77
2022-11-08T07:50:09.804Z,2.40
2022-11-08T07:52:37.207Z,1.80
2022-11-08T07:55:04.867Z,2.17
2022-11-08T07:57:31.665Z,2.13
2022-11-08T08:00:01.391Z,2.10
2022-11-08T08:02:39.236Z,2.08
2022-11-08T08:05:06.638Z,2.17
2022-11-08T08:07:35.886Z,1.73
2022-11-08T08:10:03.190Z,1.70
2022-11-08T08:12:30.445Z,2.08
2022-11-08T08:14:57.731Z,1.95
2022-11-08T08:17:24.943Z,1.90
2022-11-08T08:19:52.198Z,2.10
2022-11-08T08:22:19.532Z,3.00
2022-11-08T08:24:46.774Z,2.67
2022-11-08T08:27:14.009Z,3.15
2022-11-08T08:29:41.288Z,3.10
2022-11-08T08:32:08.469Z,2.88
2022-11-08T08:34:35.876Z,2.97
2022-11-08T08:37:03.963Z,3.05
2022-11-08T08:39:31.459Z,2.88
2022-11-08T08:41:58.662Z,3.45
2022-11-08T08:44:26.246Z,3.13
2022-11-08T08:46:53.236Z,3.55
2022-11-08T08:49:20.083Z,2.72
2022-11-08T08:51:46.872Z,3.08
2022-11-08T08:54:15.326Z,2.40
2022-11-08T08:56:42.567Z,2.15
2022-11-08T09:01:56.168Z,2.72
2022-11-08T09:04:22.960Z,2.20
2022-11-08T09:06:50.277Z,2.22
2022-11-08T09:09:17.723Z,2.35
2022-11-08T09:11:44.502Z,1.92
2022-11-08T09:14:11.727Z,2.35
2022-11-08T09:16:38.990Z,2.65
2022-11-08T09:19:06.203Z,2.53
2022-11-08T09:21:33.447Z,2.70
2022-11-08T09:24:00.370Z,2.63
2022-11-08T09:26:27.188Z,3.00
2022-11-08T09:28:54.055Z,2.67
2022-11-08T09:31:21.576Z,3.30
2022-11-08T09:33:51.005Z,3.70
2022-11-08T09:36:17.808Z,2.42
2022-11-08T09:38:45.007Z,2.67
2022-11-08T09:41:18.120Z,2.65
2022-11-08T09:43:46.373Z,2.90
2022-11-08T09:46:26.247Z,2.75
2022-11-08T09:48:54.432Z,2.45
2022-11-08T09:51:24.450Z,2.17
2022-11-08T09:53:58.031Z,4.93
2022-11-08T09:56:34.581Z,3.30
2022-11-08T09:59:28.771Z,3.58
2022-11-08T10:01:56.232Z,3.20
2022-11-08T10:04:28.399Z,2.50
2022-11-08T10:07:05.261Z,2.75
2022-11-08T10:09:32.494Z,2.60
2022-11-08T10:11:59.288Z,1.90
2022-11-08T10:14:50.586Z,1.90
2022-11-08T10:17:19.880Z,2.03
2022-11-08T10:20:14.197Z,1.70
2022-11-08T10:23:02.468Z,1.50
2022-11-08T10:25:53.866Z,1.60
2022-11-08T10:28:26.288Z,1.48
2022-11-08T10:31:13.574Z,1.55
2022-11-08T10:33:49.232Z,1.55
2022-11-08T10:36:18.798Z,1.17
2022-11-08T10:39:08.963Z,1.23
2022-11-08T10:41:36.256Z,1.50
2022-11-08T10:44:12.425Z,1.30
2022-11-08T10:46:39.649Z,1.58
2022-11-08T10:49:37.645Z,1.58
2022-11-08T10:52:42.382Z,2.35
2022-11-08T10:55:22.522Z,1.55
2022-11-08T10:57:49.724Z,1.25
2022-11-08T11:00:19.618Z,1.23
2022-11-08T11:02:52.835Z,1.27
2022-11-08T11:05:33.231Z,1.30
2022-11-08T11:08:02.007Z,1.17
2022-11-08T11:10:34.757Z,1.20
2022-11-08T11:13:06.036Z,1.50
2022-11-08T11:15:55.885Z,1.33
2022-11-08T11:18:46.732Z,1.10
2022-11-08T11:21:23.519Z,0.95
2022-11-08T11:23:56.029Z,1.35
2022-11-08T11:26:34.500Z,1.38
2022-11-08T11:29:04.603Z,1.05
2022-11-08T11:31:33.455Z,1.02
2022-11-08T11:34:19.282Z,1.02
2022-11-08T11:37:06.806Z,0.95
2022-11-08T11:39:55.700Z,1.08
2022-11-08T11:42:45.689Z,0.90
2022-11-08T11:45:41.353Z,1.20
2022-11-08T11:48:29.396Z,0.88
2022-11-08T11:50:57.275Z,1.08
2022-11-08T11:53:39.488Z,1.15
2022-11-08T11:56:10.746Z,1.05
2022-11-08T11:58:46.362Z,1.38
2022-11-08T12:01:37.122Z,1.20
2022-11-08T12:04:30.472Z,1.10
2022-11-08T12:07:29.591Z,0.82
2022-11-08T12:10:15.082Z,0.77
2022-11-08T12:13:03.883Z,1.05
2022-11-08T12:15:53.560Z,1.25
2022-11-08T12:18:50.660Z,0.80
2022-11-08T12:21:26.272Z,1.10
2022-11-08T12:23:53.024Z,0.93
2022-11-08T12:26:28.593Z,0.90
2022-11-08T12:29:25.005Z,0.95
2022-11-08T12:32:01.757Z,0.80
2022-11-08T12:35:07.449Z,0.90
2022-11-08T12:38:07.479Z,0.85
2022-11-08T12:40:48.842Z,0.80
2022-11-08T12:43:15.607Z,1.20
2022-11-08T12:46:00.677Z,1.40
2022-11-08T12:48:37.430Z,0.80
2022-11-08T12:51:04.183Z,0.88
2022-11-08T12:53:44.915Z,0.88
2022-11-08T12:56:18.545Z,0.93
2022-11-08T12:58:49.171Z,0.80
2022-11-08T13:01:18.551Z,0.88
2022-11-08T13:03:45.932Z,1.02
2022-11-08T13:06:40.005Z,0.88
2022-11-08T13:09:32.943Z,1.40
2022-11-08T13:12:11.959Z,0.73
2022-11-08T13:14:41.428Z,1.30
2022-11-08T13:17:08.794Z,1.98
2022-11-08T13:20:04.655Z,1.40
2022-11-08T13:22:32.353Z,1.35
2022-11-08T13:25:08.357Z,1.70
2022-11-08T13:30:25.399Z,0.90
2022-11-08T13:32:54.289Z,1.10
2022-11-08T13:35:27.753Z,0.77
2022-11-08T13:37:54.937Z,1.17
2022-11-08T13:40:43.861Z,1.42
2022-11-08T13:43:21.261Z,0.82
2022-11-08T13:45:49.360Z,1.20
2022-11-08T13:48:26.104Z,1.17
2022-11-08T13:50:53.615Z,1.25
2022-11-08T13:53:20.358Z,0.90
2022-11-08T13:55:47.658Z,1.08
2022-11-08T13:58:38.408Z,0.93
2022-11-08T14:01:18.578Z,0.93
2022-11-08T14:03:48.234Z,0.90
2022-11-08T14:06:18.058Z,1.10
2022-11-08T14:08:57.348Z,1.08
2022-11-08T14:11:26.991Z,0.88
2022-11-08T14:13:57.279Z,0.95
2022-11-08T14:16:34.274Z,0.95
2022-11-08T14:19:24.068Z,1.23
2022-11-08T14:21:57.111Z,0.98
2022-11-08T14:24:29.844Z,1.00
2022-11-08T14:26:57.214Z,1.10
2022-11-08T14:29:25.244Z,1.10
2022-11-08T14:32:19.248Z,1.33
2022-11-08T14:34:46.704Z,0.98
2022-11-08T14:37:23.426Z,1.20
2022-11-08T14:39:51.313Z,0.80
2022-11-08T14:42:24.369Z,0.77
2022-11-08T14:44:54.518Z,1.10
2022-11-08T14:47:31.532Z,0.98
2022-11-08T14:49:59.521Z,0.90
2022-11-08T14:52:31.496Z,0.70
2022-11-08T14:55:11.381Z,0.70
2022-11-08T14:57:46.620Z,0.90
2022-11-08T15:00:13.852Z,1.20
2022-11-08T15:02:44.488Z,1.55
2022-11-08T15:05:30.397Z,1.10
2022-11-08T15:07:59.332Z,0.90
2022-11-08T15:10:27.510Z,1.10
2022-11-08T15:12:55.218Z,0.90
2022-11-08T15:15:31.160Z,0.82
2022-11-08T15:18:17.768Z,0.70
2022-11-08T15:21:00.947Z,0.80
2022-11-08T15:23:41.741Z,0.85
2022-11-08T15:26:32.808Z,1.15
2022-11-08T15:29:04.071Z,0.73
2022-11-08T15:31:36.319Z,1.35
2022-11-08T15:34:04.090Z,0.95
2022-11-08T15:36:36.200Z,1.25
2022-11-08T15:39:05.592Z,0.60
2022-11-08T15:41:40.489Z,1.10
2022-11-08T15:44:21.903Z,0.90
2022-11-08T15:46:49.604Z,1.00
2022-11-08T15:49:28.496Z,1.02
2022-11-08T15:51:58.607Z,0.82
2022-11-08T15:54:26.887Z,0.93
2022-11-08T15:56:55.572Z,0.90
2022-11-08T15:59:28.547Z,0.90
2022-11-08T16:02:01.675Z,1.10
2022-11-08T16:04:29.679Z,0.90
2022-11-08T16:06:57.382Z,0.93
2022-11-08T16:09:24.737Z,1.10
2022-11-08T16:11:52.158Z,1.00
2022-11-08T16:14:21.508Z,1.00
2022-11-08T16:16:48.793Z,1.13
2022-11-08T16:19:18.665Z,0.98
2022-11-08T16:21:45.621Z,0.98
2022-11-08T16:24:12.929Z,0.85
2022-11-08T16:26:47.217Z,0.70
2022-11-08T16:29:20.904Z,1.05
2022-11-08T16:31:51.816Z,1.08
2022-11-08T16:34:20.103Z,1.08
2022-11-08T16:36:48.873Z,1.13
2022-11-08T16:39:17.859Z,1.10
2022-11-08T16:41:45.212Z,0.90
2022-11-08T16:44:12.635Z,1.05
2022-11-08T16:46:40.461Z,1.10
2022-11-08T16:49:15.105Z,0.90
2022-11-08T16:51:42.042Z,1.10
2022-11-08T16:54:18.656Z,1.00
2022-11-08T16:56:45.947Z,0.93
2022-11-08T16:59:13.185Z,0.90
2022-11-08T17:01:40.728Z,0.95
2022-11-08T17:04:07.870Z,1.10
2022-11-08T17:06:34.690Z,1.00
2022-11-08T17:09:01.978Z,1.00
2022-11-08T17:11:29.176Z,0.90
2022-11-08T17:13:56.639Z,1.15
2022-11-08T17:16:24.091Z,0.93
2022-11-08T17:18:52.931Z,1.00
2022-11-08T17:24:08.499Z,1.30
2022-11-08T17:26:35.491Z,1.02
2022-11-08T17:29:02.329Z,1.10
2022-11-08T17:31:29.598Z,1.23
2022-11-08T17:33:56.799Z,1.65
2022-11-08T17:36:23.603Z,1.45
2022-11-08T17:38:51.212Z,3.20
2022-11-08T17:41:18.463Z,3.65
2022-11-08T17:43:45.675Z,5.25
2022-11-08T17:46:12.918Z,2.83
2022-11-08T17:48:40.919Z,4.95
2022-11-08T17:51:08.262Z,3.10
2022-11-08T17:53:37.879Z,1.80
2022-11-08T17:56:06.390Z,2.03
2022-11-08T17:58:33.891Z,1.88
2022-11-08T18:01:04.084Z,1.65
2022-11-08T18:03:31.682Z,1.40
2022-11-08T18:06:00.585Z,1.73
2022-11-08T18:08:29.888Z,1.70
2022-11-08T18:10:57.882Z,1.20
2022-11-08T18:13:26.925Z,1.30
2022-11-08T18:15:54.292Z,1.10
2022-11-08T18:18:21.565Z,1.02
2022-11-08T18:20:54.849Z,1.10
2022-11-08T18:23:22.382Z,1.40
2022-11-08T18:25:50.062Z,0.90
2022-11-08T18:28:17.584Z,1.40
2022-11-08T18:30:47.982Z,1.20
2022-11-08T18:33:15.585Z,0.88
2022-11-08T18:35:43.481Z,1.10
2022-11-08T18:38:11.946Z,1.00
2022-11-08T18:40:39.394Z,1.13
2022-11-08T18:43:07.042Z,1.10
2022-11-08T18:45:34.334Z,0.90
2022-11-08T18:48:01.617Z,1.00
2022-11-08T18:50:28.891Z,1.20
2022-11-08T18:53:00.865Z,1.38
2022-11-08T18:55:31.338Z,1.00
2022-11-08T18:57:58.605Z,1.38
2022-11-08T19:00:25.719Z,1.42
2022-11-08T19:02:52.910Z,1.23
2022-11-08T19:05:20.531Z,1.00
2022-11-08T19:07:47.731Z,1.50
2022-11-08T19:10:14.586Z,1.60
2022-11-08T19:12:41.776Z,1.60
2022-11-08T19:15:09.314Z,1.58
2022-11-08T19:17:36.818Z,1.70
2022-11-08T19:20:04.570Z,1.98
2022-11-08T19:22:32.014Z,1.42
2022-11-08T19:24:59.202Z,2.10
2022-11-08T19:27:26.562Z,1.85
2022-11-08T19:29:53.989Z,1.50
2022-11-08T19:32:23.312Z,1.38
2022-11-08T19:34:50.705Z,2.20
2022-11-08T19:37:18.365Z,1.70
2022-11-08T19:39:45.658Z,1.70
2022-11-08T19:42:13.076Z,1.45
2022-11-08T19:44:40.461Z,1.40
2022-11-08T19:47:07.222Z,1.10
2022-11-08T19:49:36.323Z,1.40
2022-11-08T19:52:03.771Z,1.27
2022-11-08T19:54:30.588Z,1.53
2022-11-08T19:57:06.059Z,1.25
2022-11-08T19:59:33.425Z,0.95
2022-11-08T20:02:01.294Z,1.27
2022-11-08T20:04:28.680Z,1.67
2022-11-08T20:06:55.929Z,1.52
2022-11-08T20:09:28.921Z,1.83
2022-11-08T20:11:57.706Z,1.80
2022-11-08T20:14:24.600Z,1.73
2022-11-08T20:16:54.065Z,2.20
2022-11-08T20:19:21.631Z,2.15
2022-11-08T20:21:49.238Z,1.70
2022-11-08T20:24:16.430Z,2.10
2022-11-08T20:26:44.216Z,1.77
2022-11-08T20:29:11.896Z,1.90
2022-11-08T20:31:39.306Z,1.58
2022-11-08T20:34:09.864Z,1.73
2022-11-08T20:36:37.781Z,1.55
2022-11-08T20:39:07.568Z,1.27
2022-11-08T20:41:37.239Z,1.40
2022-11-08T20:44:05.263Z,1.58
2022-11-08T20:46:33.148Z,1.80
2022-11-08T20:49:01.446Z,1.50
2022-11-08T20:51:30.385Z,1.70
2022-11-08T20:53:58.768Z,1.42
2022-11-08T20:56:26.432Z,1.60
2022-11-08T20:58:53.562Z,1.45
2022-11-08T21:01:26.804Z,1.23
2022-11-08T21:03:55.145Z,1.48
2022-11-08T21:06:23.545Z,1.23
2022-11-08T21:09:00.924Z,1.30
2022-11-08T21:11:30.769Z,1.30
2022-11-08T21:13:58.351Z,1.05
2022-11-08T21:16:47.016Z,1.10
2022-11-08T21:19:12.317Z,1.10
2022-11-08T21:21:39.281Z,1.52
2022-11-08T21:24:06.427Z,1.35
2022-11-08T21:26:36.584Z,1.30
2022-11-08T21:29:05.251Z,1.33
2022-11-08T21:31:33.100Z,1.30
2022-11-08T21:34:00.346Z,1.77
2022-11-08T21:36:29.017Z,1.70
2022-11-08T21:38:56.458Z,1.20
2022-11-08T21:41:23.303Z,1.52
2022-11-08T21:43:50.504Z,1.77
2022-11-08T21:46:23.794Z,1.30
2022-11-08T21:48:55.911Z,1.17
2022-11-08T21:51:23.313Z,1.45
2022-11-08T21:53:55.751Z,1.40
2022-11-08T21:56:30.173Z,1.60
2022-11-08T21:58:57.548Z,1.45
2022-11-08T22:01:29.971Z,1.63
2022-11-08T22:04:00.555Z,1.17
2022-11-08T22:06:29.411Z,1.20
2022-11-08T22:08:56.746Z,1.40
2022-11-08T22:11:23.845Z,1.48
2022-11-08T22:13:51.216Z,1.25
2022-11-08T22:16:18.109Z,1.60
2022-11-08T22:21:38.804Z,1.42
2022-11-08T22:24:07.276Z,1.45
2022-11-08T22:26:34.408Z,1.48
2022-11-08T22:29:03.230Z,1.10
2022-11-08T22:31:30.555Z,1.10
2022-11-08T22:33:57.875Z,1.52
2022-11-08T22:36:25.023Z,1.85
2022-11-08T22:38:51.905Z,1.35
2022-11-08T22:41:20.094Z,1.20
2022-11-08T22:43:47.486Z,1.33
2022-11-08T22:46:14.754Z,1.63
2022-11-08T22:48:42.350Z,1.23
2022-11-08T22:51:09.646Z,1.40
2022-11-08T22:53:36.851Z,1.60
2022-11-08T22:56:09.751Z,1.48
2022-11-08T22:58:38.458Z,1.67
2022-11-08T23:01:05.821Z,1.10
2022-11-08T23:03:33.037Z,1.40
2022-11-08T23:05:59.938Z,1.88
2022-11-08T23:08:27.336Z,1.50
2022-11-08T23:11:13.799Z,1.55
2022-11-08T23:14:00.184Z,1.30
2022-11-08T23:16:35.115Z,1.40
2022-11-08T23:19:40.027Z,1.40
2022-11-08T23:22:28.986Z,1.13
2022-11-08T23:24:56.084Z,1.10
2022-11-08T23:27:41.658Z,1.33
2022-11-08T23:30:30.524Z,1.30
2022-11-08T23:32:57.335Z,1.30
2022-11-08T23:35:24.718Z,1.40
2022-11-08T23:37:51.840Z,1.40
2022-11-08T23:40:38.606Z,1.25
2022-11-08T23:43:36.170Z,1.30
2022-11-08T23:46:08.920Z,1.20
2022-11-08T23:48:37.261Z,1.38
2022-11-08T23:51:04.614Z,1.05
2022-11-08T23:53:33.705Z,1.38
2022-11-08T23:56:00.979Z,1.05
2022-11-08T23:58:28.167Z,1.17
